Time;durP1;ratioP1;P1;durP2;ratioP2;P2;SDS_P1;SDS_P2;PMS_P1;PMS_P2;Temp;Humidity;BMP_temperature;BMP_pressure;BME280_temperature;BME280_humidity;BME280_pressure;Samples;Min_cycle;Max_cycle;Signal;HPM_P1;HPM_P2
2023/04/20 00:00:35;;;;;;;5.28;2.22;;;6.10;88.30;;;;;;5038833;28;20053;-82
2023/04/20 00:03:02;;;;;;;7.35;2.70;;;6.20;90.40;;;;;;5055504;28;20051;-84
2023/04/20 00:05:29;;;;;;;9.40;2.63;;;6.30;91.00;;;;;;5056814;28;20055;-81
2023/04/20 00:07:54;;;;;;;8.15;2.55;;;6.40;91.20;;;;;;5055471;28;20319;-80
2023/04/20 00:10:20;;;;;;;8.00;2.92;;;6.40;91.10;;;;;;5056315;28;20087;-83
2023/04/20 00:12:46;;;;;;;8.45;3.03;;;6.50;91.60;;;;;;5055319;28;20052;-80
2023/04/20 00:15:11;;;;;;;6.53;2.70;;;6.50;91.80;;;;;;5057484;28;20045;-82
2023/04/20 00:17:38;;;;;;;8.43;2.78;;;6.60;91.40;;;;;;5056628;28;20512;-85
2023/04/20 00:20:05;;;;;;;7.33;2.70;;;6.60;91.70;;;;;;5056268;28;20052;-83
2023/04/20 00:22:30;;;;;;;7.10;2.55;;;6.60;91.10;;;;;;5056288;28;20210;-83
2023/04/20 00:24:56;;;;;;;5.95;2.40;;;6.50;91.70;;;;;;5056134;28;20081;-76
2023/04/20 00:27:22;;;;;;;9.60;2.80;;;6.50;92.00;;;;;;5056542;28;20473;-79
2023/04/20 00:29:47;;;;;;;10.02;2.65;;;6.50;93.00;;;;;;5056160;28;20452;-81
2023/04/20 00:32:13;;;;;;;8.18;2.90;;;6.40;92.90;;;;;;5057148;28;20048;-81
2023/04/20 00:34:39;;;;;;;14.25;3.00;;;6.40;93.90;;;;;;5041637;28;20052;-82
2023/04/20 00:37:05;;;;;;;6.35;2.42;;;6.40;93.10;;;;;;5056255;28;20040;-78
2023/04/20 00:39:30;;;;;;;5.15;2.28;;;6.40;93.10;;;;;;5055970;28;20440;-79
2023/04/20 00:42:06;;;;;;;7.35;2.72;;;6.40;94.00;;;;;;5055635;28;20048;-80
2023/04/20 00:44:32;;;;;;;5.10;2.22;;;6.40;94.60;;;;;;5055084;28;20071;-81
2023/04/20 00:46:58;;;;;;;7.47;2.58;;;6.40;94.90;;;;;;5056156;28;20481;-79
2023/04/20 00:49:29;;;;;;;7.75;3.08;;;6.40;95.30;;;;;;5056427;28;20084;-82
2023/04/20 00:51:56;;;;;;;6.90;2.55;;;6.50;95.50;;;;;;5056260;28;20553;-80
2023/04/20 00:54:22;;;;;;;9.98;2.67;;;6.60;95.60;;;;;;5056705;28;20049;-78
2023/04/20 00:56:49;;;;;;;7.70;2.28;;;6.60;95.20;;;;;;5055106;28;20048;-81
2023/04/20 00:59:15;;;;;;;6.97;2.20;;;6.60;94.90;;;;;;5055290;28;20053;-83
2023/04/20 01:01:41;;;;;;;6.05;2.20;;;6.70;95.40;;;;;;5055376;28;20045;-80
2023/04/20 01:04:08;;;;;;;7.10;2.42;;;6.70;95.50;;;;;;5055422;28;20041;-79
2023/04/20 01:06:34;;;;;;;6.78;2.40;;;6.80;95.80;;;;;;5056055;28;20041;-78
2023/04/20 01:09:00;;;;;;;6.60;2.67;;;6.80;95.20;;;;;;5055562;28;20041;-83
2023/04/20 01:11:26;;;;;;;6.55;1.92;;;7.10;96.10;;;;;;5054299;28;20500;-81
2023/04/20 01:13:52;;;;;;;5.80;2.20;;;7.10;95.50;;;;;;5037591;28;20065;-79
2023/04/20 01:16:17;;;;;;;6.90;1.77;;;7.20;95.80;;;;;;5055443;28;20044;-75
2023/04/20 01:18:48;;;;;;;6.72;1.55;;;7.30;95.10;;;;;;5057172;28;20063;-81
2023/04/20 01:21:16;;;;;;;5.75;1.73;;;7.60;95.20;;;;;;5058192;28;20052;-78
2023/04/20 01:23:42;;;;;;;5.90;1.65;;;7.60;95.20;;;;;;5056219;28;20055;-77
2023/04/20 01:26:13;;;;;;;7.65;2.20;;;7.70;94.80;;;;;;5056613;28;20044;-77
2023/04/20 01:28:39;;;;;;;4.63;1.80;;;7.80;94.50;;;;;;5055789;28;20040;-78
2023/04/20 01:31:06;;;;;;;5.63;1.73;;;7.90;94.10;;;;;;5053950;28;20045;-77
2023/04/20 01:33:33;;;;;;;6.05;2.13;;;8.10;93.70;;;;;;5055777;28;20049;-81
2023/04/20 01:35:58;;;;;;;5.85;1.42;;;8.10;93.60;;;;;;5054160;28;20080;-77
2023/04/20 01:38:25;;;;;;;5.20;1.75;;;8.20;93.20;;;;;;5055415;28;20539;-82
2023/04/20 01:40:52;;;;;;;8.10;1.60;;;8.30;92.80;;;;;;5055985;28;20045;-80
2023/04/20 01:43:18;;;;;;;6.85;1.25;;;8.40;92.50;;;;;;5053529;28;20110;-74
2023/04/20 01:45:44;;;;;;;3.03;1.35;;;8.50;92.10;;;;;;5054934;28;20045;-77
2023/04/20 01:48:10;;;;;;;3.80;1.25;;;8.50;91.80;;;;;;5054727;28;20512;-77
2023/04/20 01:50:35;;;;;;;4.72;1.10;;;8.60;91.40;;;;;;5054527;28;20440;-76
2023/04/20 01:53:01;;;;;;;4.93;1.75;;;8.70;91.20;;;;;;5038612;28;20473;-81
2023/04/20 01:55:27;;;;;;;3.55;1.30;;;8.70;91.20;;;;;;5053303;28;20052;-79
2023/04/20 01:57:53;;;;;;;6.50;1.83;;;8.70;91.30;;;;;;5037722;28;20435;-82
2023/04/20 02:00:18;;;;;;;4.38;1.60;;;8.70;91.20;;;;;;5055855;28;20052;-75
2023/04/20 02:02:44;;;;;;;6.00;1.58;;;8.70;91.30;;;;;;5054548;28;20041;-76
2023/04/20 02:05:10;;;;;;;6.22;1.40;;;8.70;91.10;;;;;;5053439;28;20103;-81
2023/04/20 02:07:35;;;;;;;8.10;1.60;;;8.70;91.30;;;;;;5036880;28;20155;-77
2023/04/20 02:10:02;;;;;;;5.00;1.33;;;8.80;91.30;;;;;;5037515;28;20098;-80
2023/04/20 02:12:28;;;;;;;6.50;1.30;;;8.70;91.30;;;;;;5055582;28;20056;-75
2023/04/20 02:14:54;;;;;;;4.53;1.42;;;8.70;91.40;;;;;;5055914;28;20404;-79
2023/04/20 02:17:19;;;;;;;3.95;1.20;;;8.70;91.60;;;;;;5054518;28;20041;-76
2023/04/20 02:19:45;;;;;;;4.20;1.38;;;8.70;91.50;;;;;;5054511;28;20047;-79
2023/04/20 02:22:11;;;;;;;5.20;1.23;;;8.70;91.50;;;;;;5053240;28;20045;-77
2023/04/20 02:24:37;;;;;;;5.80;1.50;;;8.70;91.60;;;;;;5054362;28;20084;-75
2023/04/20 02:27:03;;;;;;;4.60;1.52;;;8.70;91.70;;;;;;5036594;28;20084;-80
2023/04/20 02:29:29;;;;;;;6.15;1.67;;;8.70;91.80;;;;;;5036894;28;20048;-75
2023/04/20 02:31:55;;;;;;;5.90;2.20;;;8.70;92.00;;;;;;5038762;28;20055;-76
2023/04/20 02:34:20;;;;;;;5.55;1.45;;;8.60;92.20;;;;;;5058675;28;20141;-77
2023/04/20 02:36:47;;;;;;;10.77;1.70;;;8.60;92.20;;;;;;5059224;28;20053;-79
2023/04/20 02:39:13;;;;;;;8.95;1.55;;;8.50;92.30;;;;;;5059884;28;20051;-80
2023/04/20 02:41:39;;;;;;;3.88;1.30;;;8.50;92.70;;;;;;5056646;28;20072;-78
2023/04/20 02:44:05;;;;;;;4.95;1.52;;;8.50;92.70;;;;;;5056356;28;20045;-79
2023/04/20 02:46:31;;;;;;;8.35;1.38;;;8.50;92.80;;;;;;5053425;28;20496;-82
2023/04/20 02:48:56;;;;;;;5.82;1.38;;;8.40;93.00;;;;;;5054173;28;20580;-82
2023/04/20 02:51:22;;;;;;;5.90;1.70;;;8.40;93.00;;;;;;5053601;28;20474;-81
2023/04/20 02:53:48;;;;;;;6.78;1.50;;;8.30;93.30;;;;;;5054015;28;20043;-80
2023/04/20 02:56:14;;;;;;;5.15;1.40;;;8.30;93.30;;;;;;5036148;28;20080;-77
2023/04/20 02:58:39;;;;;;;4.78;1.20;;;8.20;93.70;;;;;;5053719;28;20044;-75
2023/04/20 03:01:06;;;;;;;6.53;1.98;;;8.20;93.40;;;;;;5052978;28;20091;-77
2023/04/20 03:03:31;;;;;;;7.57;1.63;;;8.20;93.70;;;;;;5053904;28;20128;-80
2023/04/20 03:05:57;;;;;;;6.18;1.45;;;8.10;94.00;;;;;;5054044;28;20469;-80
2023/04/20 03:08:23;;;;;;;8.05;1.60;;;8.10;94.20;;;;;;5052867;28;20370;-79
2023/04/20 03:10:49;;;;;;;4.53;1.27;;;8.10;94.30;;;;;;5053097;28;20084;-77
2023/04/20 03:13:14;;;;;;;5.18;1.40;;;8.10;94.10;;;;;;5053818;28;20385;-77
2023/04/20 03:15:41;;;;;;;8.07;1.63;;;8.10;94.10;;;;;;5036045;28;20052;-75
2023/04/20 03:18:07;;;;;;;8.95;1.30;;;8.10;94.00;;;;;;5055067;28;20132;-76
2023/04/20 03:20:33;;;;;;;6.90;1.92;;;8.20;94.10;;;;;;5054505;28;20105;-77
2023/04/20 03:22:58;;;;;;;7.05;1.52;;;8.20;94.10;;;;;;5053687;28;20045;-80
2023/04/20 03:25:24;;;;;;;6.10;1.73;;;8.20;94.00;;;;;;5053629;28;20040;-78
2023/04/20 03:27:50;;;;;;;7.15;1.55;;;8.20;94.00;;;;;;5052719;28;20041;-76
2023/04/20 03:30:15;;;;;;;5.75;1.25;;;8.30;93.80;;;;;;5053603;28;20040;-74
2023/04/20 03:32:41;;;;;;;6.82;1.55;;;8.30;93.80;;;;;;5052637;28;20098;-78
2023/04/20 03:35:07;;;;;;;6.28;1.27;;;8.40;93.70;;;;;;5053332;28;20041;-77
2023/04/20 03:37:37;;;;;;;7.22;1.70;;;8.40;93.80;;;;;;5036156;28;20397;-77
2023/04/20 03:40:03;;;;;;;6.88;1.73;;;8.40;94.10;;;;;;5035346;28;20056;-78
2023/04/20 03:42:29;;;;;;;6.30;2.00;;;8.30;94.10;;;;;;5053514;28;20049;-78
2023/04/20 03:44:55;;;;;;;6.22;1.70;;;8.40;94.30;;;;;;5053045;28;20048;-75
2023/04/20 03:47:20;;;;;;;5.32;1.65;;;8.40;94.20;;;;;;5069319;28;20100;-77
2023/04/20 03:49:46;;;;;;;6.13;1.58;;;8.30;94.20;;;;;;5052581;28;20090;-75
2023/04/20 03:52:12;;;;;;;8.35;1.40;;;8.40;94.30;;;;;;5053706;28;20111;-78
2023/04/20 03:54:38;;;;;;;3.63;1.33;;;8.30;94.60;;;;;;5051865;28;20048;-76
2023/04/20 03:57:04;;;;;;;5.82;1.52;;;8.30;94.30;;;;;;5052730;28;20389;-78
2023/04/20 03:59:30;;;;;;;5.03;1.52;;;8.30;94.60;;;;;;5052875;28;20060;-78
2023/04/20 04:01:57;;;;;;;6.80;1.55;;;8.30;94.10;;;;;;5051937;28;20049;-79
2023/04/20 04:04:22;;;;;;;5.40;1.63;;;8.40;93.80;;;;;;5051746;28;20056;-77
2023/04/20 04:06:48;;;;;;;5.22;1.40;;;8.30;93.50;;;;;;5053909;28;20748;-77
2023/04/20 04:09:14;;;;;;;5.63;1.50;;;8.30;93.50;;;;;;5052850;28;20496;-75
2023/04/20 04:11:40;;;;;;;4.35;1.10;;;8.40;93.20;;;;;;5052686;28;20065;-75
2023/04/20 04:14:05;;;;;;;6.75;1.30;;;8.40;92.30;;;;;;5053258;28;20138;-81
2023/04/20 04:16:31;;;;;;;5.88;1.63;;;8.50;92.50;;;;;;5054890;28;20102;-77
2023/04/20 04:18:57;;;;;;;4.47;1.02;;;8.50;92.10;;;;;;5056406;28;20053;-77
2023/04/20 04:21:22;;;;;;;5.20;1.42;;;8.50;91.00;;;;;;5056628;28;20071;-75
2023/04/20 04:23:48;;;;;;;6.80;1.90;;;8.50;91.00;;;;;;5054830;28;20408;-74
2023/04/20 04:26:14;;;;;;;5.07;1.58;;;8.50;90.50;;;;;;5055548;28;20103;-77
2023/04/20 04:28:40;;;;;;;4.40;1.35;;;8.50;91.10;;;;;;5038672;28;20052;-79
2023/04/20 04:31:08;;;;;;;5.00;1.50;;;8.50;91.60;;;;;;5055258;28;20559;-77
2023/04/20 04:33:34;;;;;;;5.15;1.63;;;8.40;91.90;;;;;;5055999;28;20049;-81
2023/04/20 04:36:03;;;;;;;4.70;1.73;;;8.30;92.50;;;;;;5038410;28;20056;-79
2023/04/20 04:38:32;;;;;;;3.83;1.63;;;8.30;93.20;;;;;;5054734;28;20048;-77
2023/04/20 04:40:58;;;;;;;5.20;1.92;;;8.20;93.00;;;;;;5022974;28;20052;-79
2023/04/20 04:43:24;;;;;;;6.93;1.58;;;8.20;93.40;;;;;;5055568;28;20041;-75
2023/04/20 04:45:54;;;;;;;5.70;1.60;;;8.10;93.60;;;;;;5056067;28;20049;-78
2023/04/20 04:48:20;;;;;;;8.15;2.03;;;8.10;93.90;;;;;;5039920;28;20087;-75
2023/04/20 04:50:48;;;;;;;5.75;1.60;;;8.10;94.30;;;;;;5055637;28;20442;-77
2023/04/20 04:53:17;;;;;;;8.15;1.50;;;8.10;94.50;;;;;;5056213;28;20067;-78
2023/04/20 04:55:42;;;;;;;9.20;1.55;;;8.00;94.60;;;;;;5038814;28;20377;-81
2023/04/20 04:58:08;;;;;;;6.38;1.52;;;8.00;94.50;;;;;;5056064;28;20049;-76
2023/04/20 05:00:34;;;;;;;4.07;1.17;;;8.00;94.70;;;;;;5055547;28;20041;-76
2023/04/20 05:03:00;;;;;;;6.30;1.27;;;8.00;94.60;;;;;;5055429;28;20080;-77
2023/04/20 05:05:26;;;;;;;5.55;2.28;;;7.90;94.80;;;;;;5055397;28;20460;-76
2023/04/20 05:07:51;;;;;;;6.78;1.80;;;7.90;95.30;;;;;;5054447;28;20052;-81
2023/04/20 05:10:17;;;;;;;7.07;1.33;;;7.80;95.80;;;;;;5054378;28;20044;-77
2023/04/20 05:12:43;;;;;;;5.72;1.55;;;7.90;95.50;;;;;;5055029;28;20133;-77
2023/04/20 05:15:09;;;;;;;9.40;1.70;;;7.80;95.80;;;;;;5055511;28;20103;-76
2023/04/20 05:17:35;;;;;;;5.03;1.67;;;7.80;95.70;;;;;;5054709;28;20084;-77
2023/04/20 05:20:00;;;;;;;7.45;1.70;;;7.80;95.80;;;;;;5056067;28;20045;-79
2023/04/20 05:22:26;;;;;;;6.50;1.58;;;7.90;95.50;;;;;;5054034;28;20049;-77
2023/04/20 05:24:52;;;;;;;6.57;1.45;;;7.90;95.20;;;;;;5055015;28;20441;-77
2023/04/20 05:27:17;;;;;;;5.05;1.40;;;7.80;95.20;;;;;;5054712;28;20049;-76
2023/04/20 05:29:43;;;;;;;5.47;1.60;;;7.80;95.20;;;;;;5037160;28;20041;-78
2023/04/20 05:32:09;;;;;;;4.07;1.40;;;7.80;95.30;;;;;;5056941;28;20052;-79
2023/04/20 05:34:34;;;;;;;4.38;1.42;;;7.80;95.30;;;;;;5057953;28;20068;-76
2023/04/20 05:37:03;;;;;;;8.02;1.70;;;7.80;95.50;;;;;;5056524;28;20067;-78
2023/04/20 05:39:29;;;;;;;3.78;1.30;;;7.70;96.00;;;;;;5041617;28;20144;-79
2023/04/20 05:41:55;;;;;;;5.63;1.23;;;7.60;96.00;;;;;;5056906;28;20068;-80
2023/04/20 05:44:20;;;;;;;9.50;1.80;;;7.60;96.50;;;;;;5062797;28;20041;-84
2023/04/20 05:46:46;;;;;;;2.72;0.98;;;7.60;97.20;;;;;;5056284;28;20041;-76
2023/04/20 05:49:12;;;;;;;7.57;1.70;;;7.60;96.40;;;;;;5056667;28;20041;-78
2023/04/20 05:51:37;;;;;;;5.90;1.42;;;7.50;97.30;;;;;;5055218;28;20128;-79
2023/04/20 05:54:03;;;;;;;4.68;1.50;;;7.40;97.50;;;;;;5037455;28;20091;-82
2023/04/20 05:56:29;;;;;;;4.10;1.48;;;7.40;98.90;;;;;;5055019;28;20045;-75
2023/04/20 05:58:56;;;;;;;9.85;1.58;;;7.40;96.90;;;;;;5037532;28;20366;-80
2023/04/20 06:01:21;;;;;;;11.03;1.70;;;7.50;96.60;;;;;;5053521;28;20137;-77
2023/04/20 06:03:48;;;;;;;9.20;2.15;;;7.50;97.80;;;;;;5054860;28;20044;-83
2023/04/20 06:06:14;;;;;;;7.60;2.13;;;7.30;98.20;;;;;;5054571;28;20134;-79
2023/04/20 06:08:40;;;;;;;4.97;1.60;;;7.20;98.60;;;;;;5053145;28;20180;-74
2023/04/20 06:11:06;;;;;;;7.53;1.63;;;7.10;99.10;;;;;;5054635;28;20329;-77
2023/04/20 06:13:32;;;;;;;4.80;1.80;;;7.20;99.70;;;;;;5036469;28;20053;-73
2023/04/20 06:15:57;;;;;;;8.68;1.60;;;7.20;99.90;;;;;;5054174;28;20053;-78
2023/04/20 06:18:23;;;;;;;7.13;2.13;;;7.00;99.90;;;;;;5037221;28;20079;-74
2023/04/20 06:20:49;;;;;;;6.05;1.70;;;7.00;99.90;;;;;;5053868;28;20052;-74
2023/04/20 06:23:15;;;;;;;5.22;2.00;;;7.00;99.90;;;;;;5054035;28;20052;-79
2023/04/20 06:25:41;;;;;;;6.32;1.90;;;7.00;99.90;;;;;;5054522;28;20041;-76
2023/04/20 06:28:07;;;;;;;7.32;2.25;;;7.00;99.80;;;;;;5054163;28;20091;-77
2023/04/20 06:30:33;;;;;;;11.05;1.83;;;7.00;99.90;;;;;;5036504;28;20450;-78
2023/04/20 06:33:02;;;;;;;4.85;1.90;;;7.10;99.70;;;;;;5054365;28;20049;-79
2023/04/20 06:35:28;;;;;;;5.25;1.85;;;7.10;99.90;;;;;;5052767;28;20048;-79
2023/04/20 06:37:56;;;;;;;7.40;1.80;;;7.10;99.80;;;;;;5052992;28;20045;-77
2023/04/20 06:40:25;;;;;;;6.15;1.90;;;7.10;99.70;;;;;;5053261;28;20462;-78
2023/04/20 06:42:51;;;;;;;7.15;1.85;;;7.10;99.90;;;;;;5054141;28;20037;-75
2023/04/20 06:45:17;;;;;;;6.40;1.98;;;7.10;99.90;;;;;;5054202;28;20041;-81
2023/04/20 06:47:43;;;;;;;8.82;2.75;;;7.10;99.90;;;;;;5053221;28;20508;-77
2023/04/20 06:50:09;;;;;;;10.68;2.67;;;7.10;99.90;;;;;;5053554;28;20122;-79
2023/04/20 06:52:39;;;;;;;7.95;2.58;;;7.10;99.90;;;;;;5052963;28;20115;-77
2023/04/20 06:55:06;;;;;;;8.23;2.55;;;6.90;99.90;;;;;;5053137;28;20042;-76
2023/04/20 06:57:32;;;;;;;9.50;2.53;;;6.80;99.90;;;;;;5054418;28;20061;-77
2023/04/20 06:59:57;;;;;;;7.38;2.40;;;6.70;99.90;;;;;;5037270;28;20467;-78
2023/04/20 07:02:23;;;;;;;9.23;2.50;;;6.50;99.90;;;;;;5021103;28;20045;-79
2023/04/20 07:04:49;;;;;;;6.72;2.10;;;6.40;99.90;;;;;;5054041;28;20055;-78
2023/04/20 07:07:15;;;;;;;6.53;2.50;;;6.20;99.90;;;;;;5036749;28;20083;-78
2023/04/20 07:09:41;;;;;;;7.35;2.67;;;6.20;99.90;;;;;;5052844;28;20045;-76
2023/04/20 07:12:07;;;;;;;8.88;3.58;;;6.10;99.90;;;;;;5053071;28;20041;-79
2023/04/20 07:14:33;;;;;;;10.85;3.42;;;6.00;99.90;;;;;;5053301;28;20136;-76
2023/04/20 07:16:58;;;;;;;9.60;3.85;;;5.90;99.90;;;;;;5055842;28;20457;-79
2023/04/20 07:19:25;;;;;;;8.65;2.60;;;5.70;99.90;;;;;;5054804;28;20045;-77
2023/04/20 07:21:50;;;;;;;8.32;2.50;;;5.80;99.90;;;;;;5052165;28;20412;-78
2023/04/20 07:24:16;;;;;;;8.60;2.53;;;5.90;99.90;;;;;;5051998;28;20190;-77
2023/04/20 07:26:42;;;;;;;8.25;3.22;;;5.90;99.90;;;;;;5052947;28;20049;-74
2023/04/20 07:29:07;;;;;;;8.57;2.33;;;5.90;99.90;;;;;;5035526;28;20060;-79
2023/04/20 07:31:33;;;;;;;10.82;3.15;;;6.10;99.90;;;;;;5053540;28;20049;-80
2023/04/20 07:33:59;;;;;;;8.38;2.80;;;6.10;99.90;;;;;;5052760;28;20077;-79
2023/04/20 07:36:25;;;;;;;8.13;2.55;;;6.10;99.90;;;;;;5053108;28;20106;-81
2023/04/20 07:38:51;;;;;;;6.95;3.00;;;6.20;99.90;;;;;;5053930;28;20041;-81
2023/04/20 07:41:16;;;;;;;9.07;2.65;;;6.20;99.90;;;;;;5057583;28;20045;-81
2023/04/20 07:43:43;;;;;;;9.38;2.83;;;6.40;99.90;;;;;;5058470;28;20136;-78
2023/04/20 07:46:09;;;;;;;8.02;2.33;;;6.50;99.90;;;;;;5074741;28;20049;-82
2023/04/20 07:48:36;;;;;;;9.65;2.67;;;6.50;99.90;;;;;;5058900;28;20092;-80
2023/04/20 07:51:02;;;;;;;6.60;2.58;;;6.60;99.90;;;;;;5060333;28;20080;-81
2023/04/20 07:53:28;;;;;;;8.65;4.30;;;6.70;99.90;;;;;;5059051;28;20048;-81
2023/04/20 07:55:54;;;;;;;8.38;2.45;;;6.70;99.90;;;;;;5059659;28;20136;-81
2023/04/20 07:58:23;;;;;;;9.48;3.33;;;7.00;99.90;;;;;;5057743;28;20076;-84
2023/04/20 08:00:49;;;;;;;7.38;2.72;;;6.80;99.90;;;;;;5041969;28;20053;-81
2023/04/20 08:03:15;;;;;;;9.13;3.13;;;7.00;99.90;;;;;;5059266;28;20090;-85
2023/04/20 08:05:41;;;;;;;9.75;3.20;;;7.00;99.90;;;;;;5059243;28;20045;-82
2023/04/20 08:08:06;;;;;;;11.23;3.40;;;7.00;99.90;;;;;;5059805;28;20049;-80
2023/04/20 08:10:32;;;;;;;9.85;3.15;;;7.30;99.90;;;;;;5059689;28;20490;-81
2023/04/20 08:12:58;;;;;;;7.13;2.90;;;7.60;99.90;;;;;;5058686;28;20131;-81
2023/04/20 08:15:24;;;;;;;7.65;2.92;;;7.30;99.90;;;;;;5060919;28;20056;-82
2023/04/20 08:17:49;;;;;;;12.90;3.10;;;7.60;99.90;;;;;;5058179;28;20064;-81
2023/04/20 08:20:15;;;;;;;12.68;3.53;;;7.50;99.90;;;;;;5059964;28;20139;-85
2023/04/20 08:22:41;;;;;;;7.80;2.88;;;7.50;99.90;;;;;;5060805;28;20128;-78
2023/04/20 08:25:07;;;;;;;11.00;3.42;;;7.70;99.90;;;;;;5060539;28;20045;-86
2023/04/20 08:27:33;;;;;;;11.13;3.40;;;7.90;99.90;;;;;;5061568;28;20102;-81
2023/04/20 08:29:59;;;;;;;10.80;3.20;;;8.20;99.90;;;;;;5029602;28;20073;-81
2023/04/20 08:32:25;;;;;;;13.07;3.38;;;8.40;99.90;;;;;;5061204;28;20101;-80
2023/04/20 08:34:52;;;;;;;9.30;3.47;;;8.50;99.90;;;;;;5063774;28;20084;-81
2023/04/20 08:37:18;;;;;;;10.27;3.67;;;8.60;99.90;;;;;;5062073;28;20385;-81
2023/04/20 08:39:44;;;;;;;11.00;3.63;;;8.60;99.90;;;;;;5060538;28;20135;-80
2023/04/20 08:42:10;;;;;;;12.10;4.47;;;8.70;99.90;;;;;;5061587;28;20048;-84
2023/04/20 08:44:36;;;;;;;12.05;4.10;;;8.80;99.90;;;;;;5060507;28;20053;-79
2023/04/20 08:47:02;;;;;;;12.32;4.00;;;8.80;99.90;;;;;;5059875;28;20057;-81
2023/04/20 08:49:29;;;;;;;12.93;4.45;;;9.10;99.90;;;;;;5061724;28;20470;-85
2023/04/20 08:51:55;;;;;;;10.80;4.15;;;8.80;99.90;;;;;;5062746;28;20049;-80
2023/04/20 08:54:21;;;;;;;11.98;4.53;;;8.60;99.90;;;;;;5066612;28;20041;-81
2023/04/20 08:56:47;;;;;;;14.20;4.00;;;8.80;99.90;;;;;;5066531;28;20500;-79
2023/04/20 08:59:16;;;;;;;12.55;4.65;;;8.70;99.90;;;;;;5066553;28;20148;-81
2023/04/20 09:01:42;;;;;;;14.02;4.63;;;8.70;99.90;;;;;;5058600;28;20386;-80
2023/04/20 09:04:18;;;;;;;13.07;4.53;;;8.60;99.90;;;;;;5057707;28;20049;-85
2023/04/20 09:06:52;;;;;;;11.98;5.05;;;8.70;99.90;;;;;;5061194;28;20106;-84
2023/04/20 09:09:20;;;;;;;12.95;5.13;;;8.40;99.90;;;;;;5061511;28;20048;-84
2023/04/20 09:11:46;;;;;;;12.25;5.03;;;8.50;99.90;;;;;;5061343;28;20080;-84
2023/04/20 09:14:17;;;;;;;13.63;5.50;;;8.70;99.90;;;;;;5059622;28;20421;-79
2023/04/20 09:16:51;;;;;;;14.57;5.60;;;8.80;99.90;;;;;;5060308;28;20060;-84
2023/04/20 09:19:24;;;;;;;12.35;5.32;;;9.10;99.90;;;;;;5059172;28;20048;-81
2023/04/20 09:21:53;;;;;;;18.40;5.75;;;8.80;99.90;;;;;;5059430;28;20045;-87
2023/04/20 09:24:30;;;;;;;16.65;6.00;;;8.90;99.90;;;;;;5059311;28;20093;-79
2023/04/20 09:26:56;;;;;;;19.30;6.70;;;9.00;99.90;;;;;;5058974;28;20056;-87
2023/04/20 09:29:24;;;;;;;12.73;5.95;;;8.90;99.90;;;;;;5058806;28;20049;-80
2023/04/20 09:31:50;;;;;;;16.88;6.15;;;8.60;99.90;;;;;;5060240;28;20041;-83
2023/04/20 09:34:18;;;;;;;16.65;6.70;;;8.90;99.90;;;;;;5041553;28;20497;-80
2023/04/20 09:36:53;;;;;;;14.45;6.05;;;9.20;99.90;;;;;;5060336;28;20104;-81
2023/04/20 09:39:23;;;;;;;23.00;6.10;;;9.40;99.90;;;;;;5059942;28;20091;-83
2023/04/20 09:41:50;;;;;;;19.05;6.35;;;9.50;99.90;;;;;;5059064;28;20521;-78
2023/04/20 09:44:17;;;;;;;14.43;5.20;;;9.60;99.90;;;;;;5061120;28;20442;-79
2023/04/20 09:46:44;;;;;;;17.65;7.15;;;9.80;99.90;;;;;;5059634;28;20055;-84
2023/04/20 09:49:11;;;;;;;17.63;6.65;;;9.90;99.90;;;;;;5060296;28;20068;-84
2023/04/20 09:51:44;;;;;;;14.63;6.22;;;9.80;99.90;;;;;;5059227;28;20410;-84
2023/04/20 09:54:11;;;;;;;16.73;7.13;;;9.90;99.90;;;;;;5058313;28;20132;-81
2023/04/20 09:56:38;;;;;;;16.27;6.90;;;10.00;99.90;;;;;;5059647;28;20103;-80
2023/04/20 09:59:04;;;;;;;17.88;6.68;;;10.20;99.90;;;;;;5058358;28;20101;-81
2023/04/20 10:01:33;;;;;;;19.35;6.70;;;10.30;99.90;;;;;;5057771;28;20069;-77
2023/04/20 10:04:00;;;;;;;15.77;7.05;;;10.30;99.90;;;;;;5059229;28;20118;-81
2023/04/20 10:06:31;;;;;;;14.90;6.50;;;10.40;99.90;;;;;;5058371;28;20128;-77
2023/04/20 10:09:00;;;;;;;18.52;6.90;;;10.30;99.90;;;;;;5059339;28;20041;-79
2023/04/20 10:11:35;;;;;;;17.92;7.82;;;10.30;99.90;;;;;;5060357;28;20045;-83
2023/04/20 10:14:16;;;;;;;16.58;6.97;;;10.20;99.90;;;;;;5058389;28;20112;-79
2023/04/20 10:16:42;;;;;;;19.02;7.45;;;10.10;99.90;;;;;;5040929;28;20057;-87
2023/04/20 10:19:08;;;;;;;19.65;7.53;;;10.00;99.90;;;;;;5059616;28;20045;-82
2023/04/20 10:21:45;;;;;;;21.77;8.65;;;10.00;99.90;;;;;;5040816;28;20132;-76
2023/04/20 10:24:11;;;;;;;18.80;8.10;;;10.00;99.90;;;;;;5058568;28;20049;-82
2023/04/20 10:26:44;;;;;;;20.48;7.68;;;10.20;99.90;;;;;;5022532;28;20206;-77
2023/04/20 10:29:22;;;;;;;18.77;8.90;;;10.40;99.90;;;;;;5040414;28;20500;-82
2023/04/20 10:31:47;;;;;;;20.88;8.90;;;10.60;99.90;;;;;;5059405;28;20045;-79
2023/04/20 10:34:13;;;;;;;20.45;8.57;;;11.00;99.90;;;;;;5057821;28;20114;-84
2023/04/20 10:36:39;;;;;;;18.35;9.10;;;11.30;99.90;;;;;;5038523;28;20045;-81
2023/04/20 10:39:16;;;;;;;19.35;8.63;;;11.10;99.90;;;;;;5057074;28;20082;-86
2023/04/20 10:41:50;;;;;;;;;;;11.00;99.90;;;;;;5057770;28;20045;-79
2023/04/20 10:44:16;;;;;;;16.80;8.63;;;10.80;99.90;;;;;;5057750;28;20307;-84
2023/04/20 10:46:42;;;;;;;20.52;9.40;;;10.90;99.90;;;;;;5056289;28;20131;-79
2023/04/20 10:49:08;;;;;;;24.45;9.98;;;10.60;99.90;;;;;;5055182;28;20132;-77
2023/04/20 10:51:33;;;;;;;22.67;9.68;;;10.60;99.90;;;;;;5057331;28;20057;-77
2023/04/20 10:54:04;;;;;;;19.75;9.13;;;10.30;99.90;;;;;;5058780;28;20041;-80
2023/04/20 10:56:41;;;;;;;23.60;9.75;;;10.40;99.90;;;;;;5056903;28;20037;-80
2023/04/20 10:59:08;;;;;;;24.75;11.20;;;10.10;99.90;;;;;;5038829;28;20056;-84
2023/04/20 11:01:34;;;;;;;20.73;9.85;;;10.00;99.90;;;;;;5056471;28;20515;-86
2023/04/20 11:04:00;;;;;;;22.25;10.10;;;10.10;99.90;;;;;;5059941;28;20124;-84
2023/04/20 11:06:27;;;;;;;23.92;11.90;;;10.70;99.90;;;;;;5039956;28;20476;-82
2023/04/20 11:08:53;;;;;;;23.77;10.25;;;10.60;99.90;;;;;;5056738;28;20045;-80
2023/04/20 11:11:20;;;;;;;21.75;10.38;;;10.90;99.90;;;;;;5056121;28;20059;-81
2023/04/20 11:13:47;;;;;;;21.50;10.27;;;11.10;99.90;;;;;;5056739;28;20059;-76
2023/04/20 11:16:15;;;;;;;22.50;10.07;;;11.40;99.90;;;;;;5058710;28;20057;-79
2023/04/20 11:18:51;;;;;;;23.48;10.07;;;;;;;;;;5058082;28;20053;-76
2023/04/20 11:21:17;;;;;;;18.48;8.27;;;11.80;99.90;;;;;;5056651;28;20388;-84
2023/04/20 11:23:43;;;;;;;22.98;9.38;;;11.70;99.90;;;;;;5056777;28;20550;-82
2023/04/20 11:26:10;;;;;;;16.85;8.25;;;11.60;99.90;;;;;;5042151;28;20193;-81
2023/04/20 11:28:36;;;;;;;19.70;8.30;;;11.60;99.90;;;;;;5043059;28;20068;-80
2023/04/20 11:31:02;;;;;;;19.05;8.93;;;11.70;99.90;;;;;;5059456;28;20045;-84
2023/04/20 11:33:29;;;;;;;20.13;10.05;;;12.10;99.90;;;;;;5041894;28;20052;-82
2023/04/20 11:36:00;;;;;;;21.52;10.35;;;12.00;99.90;;;;;;5041652;28;20045;-80
2023/04/20 11:38:31;;;;;;;19.75;9.13;;;11.80;99.90;;;;;;5058494;28;20132;-79
2023/04/20 11:40:59;;;;;;;21.83;9.65;;;11.90;99.80;;;;;;5060943;28;20055;-80
2023/04/20 11:43:27;;;;;;;26.20;10.25;;;11.90;99.90;;;;;;5042708;28;20090;-77
2023/04/20 11:45:53;;;;;;;23.67;9.35;;;11.80;99.90;;;;;;5059322;28;20412;-79
2023/04/20 11:48:19;;;;;;;21.90;10.82;;;12.00;99.80;;;;;;5024811;28;20127;-82
2023/04/20 11:50:45;;;;;;;24.60;11.00;;;11.60;99.90;;;;;;5058267;28;20080;-83
2023/04/20 11:53:13;;;;;;;18.60;9.25;;;11.90;99.90;;;;;;5042258;28;20088;-82
2023/04/20 11:55:40;;;;;;;17.52;8.98;;;11.90;99.90;;;;;;5041640;28;20053;-82
2023/04/20 11:58:07;;;;;;;24.30;9.40;;;11.80;99.80;;;;;;5058377;28;20052;-80
2023/04/20 12:00:33;;;;;;;19.40;8.95;;;11.60;99.90;;;;;;5060306;28;20497;-82
2023/04/20 12:03:00;;;;;;;20.83;10.02;;;11.70;99.90;;;;;;5061276;28;20045;-79
2023/04/20 12:05:27;;;;;;;20.65;9.68;;;11.60;99.70;;;;;;5060330;28;20049;-82
2023/04/20 12:10:57;;;;;;;23.42;12.07;;;11.80;99.90;;;;;;5060063;28;19927;-80
2023/04/20 12:13:23;;;;;;;22.20;11.43;;;11.70;99.70;;;;;;5060971;28;20404;-82
2023/04/20 12:15:48;;;;;;;22.70;10.07;;;11.90;99.90;;;;;;5060191;28;20057;-80
2023/04/20 12:18:14;;;;;;;24.10;10.00;;;12.10;99.90;;;;;;5059617;28;20114;-81
2023/04/20 12:20:40;;;;;;;21.58;10.40;;;12.20;99.90;;;;;;5059432;28;20056;-80
2023/04/20 12:23:05;;;;;;;21.40;9.38;;;12.10;99.80;;;;;;5057489;28;20041;-84
2023/04/20 12:25:31;;;;;;;21.70;9.57;;;12.00;99.50;;;;;;5059434;28;20049;-80
2023/04/20 12:27:57;;;;;;;17.15;7.70;;;12.00;99.30;;;;;;5056683;28;20084;-78
2023/04/20 12:30:22;;;;;;;18.20;6.95;;;12.10;98.80;;;;;;5058153;28;20080;-77
2023/04/20 12:32:48;;;;;;;23.15;8.88;;;12.10;98.40;;;;;;5057585;28;20053;-78
2023/04/20 12:35:14;;;;;;;16.60;8.00;;;12.00;98.40;;;;;;5056902;28;20052;-81
2023/04/20 12:37:40;;;;;;;17.40;8.65;;;12.00;97.80;;;;;;5060243;28;20049;-85
2023/04/20 12:40:06;;;;;;;21.48;9.48;;;12.00;98.00;;;;;;5044399;28;20044;-78
2023/04/20 12:42:32;;;;;;;21.92;8.15;;;12.00;98.20;;;;;;5060578;28;20056;-84
2023/04/20 12:44:58;;;;;;;19.95;9.82;;;12.30;98.20;;;;;;5060628;28;20101;-82
2023/04/20 12:47:23;;;;;;;20.92;9.65;;;12.40;98.10;;;;;;5056931;28;20056;-81
2023/04/20 12:49:49;;;;;;;23.60;10.20;;;12.60;98.00;;;;;;5059247;28;20052;-86